Terminal Aerodrome Forecast
Issued by NWS Wichita, KS

Home | Current Version | Previous Version | Text Only | Print | Product List | Glossary On
Versions: 1 2 3 4 5 6 7 8 9 10 11 12 13 14 15 16 17 18 19 20
000
FTUS43 KICT 271556 AAA
TAFICT
TAF AMD
KICT 271556Z 2716/2812 08008KT P6SM OVC060
      TEMPO 2716/2720 2SM -SN OVC020
     FM272100 12010KT P6SM OVC020=

USA.gov is the U.S. government's official web portal to all federal, state and local government web resources and services.